createdAt,value
2023-04-17T00:01:40.592Z,16.27
2023-04-17T00:04:11.373Z,17.80
2023-04-17T00:06:39.862Z,17.83
2023-04-17T00:09:06.999Z,18.05
2023-04-17T00:11:33.808Z,18.80
2023-04-17T00:14:00.876Z,18.88
2023-04-17T00:16:27.951Z,20.00
2023-04-17T00:18:55.768Z,19.08
2023-04-17T00:21:22.885Z,19.13
2023-04-17T00:23:49.846Z,19.80
2023-04-17T00:26:16.664Z,17.95
2023-04-17T00:28:43.498Z,18.70
2023-04-17T00:31:10.348Z,19.20
2023-04-17T00:33:37.161Z,17.63
2023-04-17T00:36:04.341Z,18.90
2023-04-17T00:38:31.147Z,19.58
2023-04-17T00:40:58.088Z,17.17
2023-04-17T00:43:24.874Z,18.10
2023-04-17T00:45:53.809Z,19.70
2023-04-17T00:48:24.246Z,19.52
2023-04-17T00:50:52.604Z,20.88
2023-04-17T00:53:19.576Z,20.52
2023-04-17T00:55:51.203Z,18.45
2023-04-17T00:58:18.836Z,18.45
2023-04-17T01:00:45.876Z,19.25
2023-04-17T01:03:12.996Z,19.40
2023-04-17T01:05:41.203Z,20.38
2023-04-17T01:08:08.009Z,20.15
2023-04-17T01:10:34.963Z,20.63
2023-04-17T01:13:07.652Z,20.52
2023-04-17T01:15:36.329Z,19.50
2023-04-17T01:18:04.773Z,18.83
2023-04-17T01:20:32.858Z,20.00
2023-04-17T01:23:01.078Z,18.65
2023-04-17T01:25:28.968Z,19.33
2023-04-17T01:27:56.875Z,19.08
2023-04-17T01:30:24.458Z,18.67
2023-04-17T01:32:57.673Z,18.42
2023-04-17T01:35:24.764Z,17.92
2023-04-17T01:37:52.141Z,18.10
2023-04-17T01:40:18.985Z,17.55
2023-04-17T01:42:45.787Z,17.38
2023-04-17T01:45:12.637Z,17.23
2023-04-17T01:47:40.574Z,17.23
2023-04-17T01:50:09.055Z,15.90
2023-04-17T01:52:36.474Z,16.88
2023-04-17T01:55:04.178Z,16.35
2023-04-17T01:57:33.174Z,16.65
2023-04-17T01:59:59.997Z,16.55
2023-04-17T02:02:27.031Z,16.23
2023-04-17T02:04:54.575Z,17.25
2023-04-17T02:07:21.550Z,17.55
2023-04-17T02:09:48.283Z,17.45
2023-04-17T02:12:15.440Z,17.23
2023-04-17T02:14:43.054Z,16.02
2023-04-17T02:17:09.886Z,16.10
2023-04-17T02:19:36.640Z,16.27
2023-04-17T02:22:03.559Z,17.00
2023-04-17T02:24:31.365Z,16.23
2023-04-17T02:27:00.724Z,16.63
2023-04-17T02:29:27.577Z,14.52
2023-04-17T02:31:54.610Z,14.73
2023-04-17T02:34:21.430Z,15.27
2023-04-17T02:36:50.915Z,15.13
2023-04-17T02:39:19.081Z,14.43
2023-04-17T02:41:45.898Z,15.38
2023-04-17T02:44:12.810Z,15.15
2023-04-17T02:46:39.661Z,14.73
2023-04-17T02:49:08.423Z,14.63
2023-04-17T02:51:36.378Z,15.68
2023-04-17T02:54:03.462Z,16.13
2023-04-17T02:56:30.389Z,14.50
2023-04-17T02:58:57.185Z,16.20
2023-04-17T03:01:24.138Z,15.38
2023-04-17T03:03:52.504Z,15.70
2023-04-17T03:06:19.730Z,16.75
2023-04-17T03:08:46.731Z,16.33
2023-04-17T03:11:13.700Z,15.93
2023-04-17T03:13:40.709Z,17.20
2023-04-17T03:16:08.105Z,16.52
2023-04-17T03:18:43.401Z,17.13
2023-04-17T03:21:10.450Z,16.92
2023-04-17T03:23:37.286Z,15.98
2023-04-17T03:26:06.343Z,17.23
2023-04-17T03:28:34.034Z,17.77
2023-04-17T03:31:02.025Z,16.55
2023-04-17T03:33:30.570Z,17.42
2023-04-17T03:35:58.444Z,18.65
2023-04-17T03:38:25.338Z,17.60
2023-04-17T03:40:53.393Z,19.25
2023-04-17T03:43:22.981Z,19.52
2023-04-17T03:45:49.921Z,17.85
2023-04-17T03:48:17.416Z,18.33
2023-04-17T03:50:45.816Z,18.35
2023-04-17T03:53:13.320Z,18.73
2023-04-17T03:55:40.718Z,19.80
2023-04-17T03:58:09.885Z,19.70
2023-04-17T04:00:37.398Z,20.85
2023-04-17T04:03:08.050Z,20.20
2023-04-17T04:05:39.582Z,19.65
2023-04-17T04:08:08.285Z,20.70
2023-04-17T04:10:44.821Z,19.88
2023-04-17T04:13:14.967Z,20.50
2023-04-17T04:15:45.279Z,21.27
2023-04-17T04:18:14.438Z,20.05
2023-04-17T04:20:41.412Z,20.73
2023-04-17T04:23:16.678Z,20.88
2023-04-17T04:25:44.826Z,21.88
2023-04-17T04:28:24.118Z,20.80
2023-04-17T04:30:53.032Z,19.15
2023-04-17T04:33:21.781Z,21.30
2023-04-17T04:35:48.978Z,20.42
2023-04-17T04:38:17.169Z,20.75
2023-04-17T04:40:52.170Z,21.80
2023-04-17T04:43:22.193Z,20.27
2023-04-17T04:45:52.461Z,20.85
2023-04-17T04:48:19.675Z,20.63
2023-04-17T04:50:46.600Z,21.60
2023-04-17T04:53:13.445Z,20.77
2023-04-17T04:55:48.889Z,20.75
2023-04-17T04:58:16.249Z,22.42
2023-04-17T05:00:44.936Z,21.95
2023-04-17T05:03:17.817Z,21.58
2023-04-17T05:05:46.034Z,19.13
2023-04-17T05:08:15.240Z,20.58
2023-04-17T05:10:47.369Z,20.52
2023-04-17T05:13:14.680Z,19.25
2023-04-17T05:15:41.645Z,20.08
2023-04-17T05:18:09.637Z,20.20
2023-04-17T05:20:37.698Z,19.58
2023-04-17T05:23:05.888Z,20.10
2023-04-17T05:25:32.827Z,19.83
2023-04-17T05:28:01.374Z,19.80
2023-04-17T05:30:28.382Z,21.02
2023-04-17T05:33:06.672Z,18.88
2023-04-17T05:35:48.032Z,18.52
2023-04-17T05:38:14.898Z,19.52
2023-04-17T05:40:41.747Z,18.33
2023-04-17T05:43:10.302Z,19.05
2023-04-17T05:45:38.625Z,19.63
2023-04-17T05:48:08.689Z,18.77
2023-04-17T05:50:37.348Z,19.20
2023-04-17T05:53:05.100Z,20.25
2023-04-17T05:55:36.197Z,19.67
2023-04-17T05:58:20.362Z,22.52
2023-04-17T06:00:49.957Z,19.65
2023-04-17T06:03:19.510Z,19.52
2023-04-17T06:05:49.974Z,20.35
2023-04-17T06:08:17.185Z,20.77
2023-04-17T06:10:45.847Z,22.42
2023-04-17T06:13:13.360Z,21.25
2023-04-17T06:15:44.875Z,21.20
2023-04-17T06:18:11.916Z,21.75
2023-04-17T06:20:40.271Z,21.60
2023-04-17T06:23:07.145Z,19.63
2023-04-17T06:25:34.004Z,18.73
2023-04-17T06:28:00.862Z,18.20
2023-04-17T06:30:28.277Z,18.00
2023-04-17T06:32:55.807Z,18.98
2023-04-17T06:35:22.802Z,19.48
2023-04-17T06:38:09.899Z,19.50
2023-04-17T06:40:36.782Z,20.55
2023-04-17T06:43:05.799Z,19.80
2023-04-17T06:45:34.227Z,19.42
2023-04-17T06:48:01.038Z,18.92
2023-04-17T06:50:29.126Z,19.88
2023-04-17T06:52:56.092Z,19.60
2023-04-17T06:55:22.893Z,19.42
2023-04-17T06:57:49.621Z,19.85
2023-04-17T07:00:16.987Z,19.85
2023-04-17T07:02:43.968Z,20.50
2023-04-17T07:05:11.407Z,20.95
2023-04-17T07:07:39.607Z,19.77
2023-04-17T07:10:07.437Z,21.63
2023-04-17T07:12:34.375Z,21.00
2023-04-17T07:15:01.253Z,20.42
2023-04-17T07:17:28.100Z,21.23
2023-04-17T07:19:55.045Z,21.02
2023-04-17T07:22:22.270Z,21.40
2023-04-17T07:24:49.057Z,22.50
2023-04-17T07:27:15.856Z,23.08
2023-04-17T07:29:42.620Z,21.55
2023-04-17T07:32:09.430Z,22.33
2023-04-17T07:34:41.070Z,21.85
2023-04-17T07:37:07.932Z,22.50
2023-04-17T07:39:34.719Z,22.23
2023-04-17T07:42:06.220Z,22.88
2023-04-17T07:44:33.207Z,23.58
2023-04-17T07:47:00.302Z,22.88
2023-04-17T07:49:27.453Z,23.63
2023-04-17T07:51:54.624Z,23.27
2023-04-17T07:54:21.464Z,24.23
2023-04-17T07:56:49.354Z,24.27
2023-04-17T07:59:16.944Z,23.15
2023-04-17T08:01:43.999Z,22.80
2023-04-17T08:04:10.935Z,21.73
2023-04-17T08:06:38.160Z,21.30
2023-04-17T08:09:05.267Z,24.52
2023-04-17T08:11:35.688Z,24.08
2023-04-17T08:14:06.825Z,25.35
2023-04-17T08:16:33.615Z,25.05
2023-04-17T08:19:00.514Z,25.00
2023-04-17T08:21:27.496Z,23.58
2023-04-17T08:23:54.283Z,23.23
2023-04-17T08:26:22.249Z,22.08
2023-04-17T08:28:49.018Z,23.75
2023-04-17T08:31:15.939Z,22.70
2023-04-17T08:33:42.736Z,22.77
2023-04-17T08:36:10.459Z,22.40
2023-04-17T08:38:37.444Z,20.85
2023-04-17T08:41:13.161Z,22.33
2023-04-17T08:43:41.313Z,21.27
2023-04-17T08:46:08.371Z,19.88
2023-04-17T08:48:35.496Z,19.92
2023-04-17T08:51:03.423Z,19.00
2023-04-17T08:53:30.282Z,19.55
2023-04-17T08:56:06.858Z,20.38
2023-04-17T08:58:36.690Z,19.60
2023-04-17T09:01:12.597Z,20.75
2023-04-17T09:03:44.443Z,20.00
2023-04-17T09:06:11.987Z,19.38
2023-04-17T09:08:53.701Z,18.98
2023-04-17T09:11:20.639Z,19.50
2023-04-17T09:13:47.413Z,19.17
2023-04-17T09:16:19.473Z,18.90
2023-04-17T09:18:47.474Z,19.33
2023-04-17T09:21:18.710Z,21.05
2023-04-17T09:23:52.154Z,19.13
2023-04-17T09:26:22.828Z,19.77
2023-04-17T09:29:11.390Z,19.77
2023-04-17T09:31:42.154Z,19.05
2023-04-17T09:34:12.059Z,19.05
2023-04-17T09:36:43.847Z,18.13
2023-04-17T09:39:26.183Z,19.80
2023-04-17T09:42:04.300Z,18.60
2023-04-17T09:44:31.389Z,18.45
2023-04-17T09:47:01.194Z,18.52
2023-04-17T09:49:42.517Z,19.80
2023-04-17T09:52:09.617Z,17.77
2023-04-17T09:54:40.004Z,18.10
2023-04-17T09:57:08.826Z,19.42
2023-04-17T09:59:48.879Z,19.38
2023-04-17T10:02:19.976Z,18.38
2023-04-17T10:04:47.720Z,18.60
2023-04-17T10:07:16.282Z,18.77
2023-04-17T10:09:45.708Z,18.48
2023-04-17T10:12:17.687Z,18.17
2023-04-17T10:14:48.331Z,18.73
2023-04-17T10:17:25.723Z,17.35
2023-04-17T10:19:52.638Z,18.40
2023-04-17T10:22:19.480Z,18.52
2023-04-17T10:24:54.307Z,18.35
2023-04-17T10:27:27.076Z,18.38
2023-04-17T10:29:59.770Z,17.33
2023-04-17T10:32:29.069Z,18.45
2023-04-17T10:34:59.801Z,18.38
2023-04-17T10:37:48.651Z,18.35
2023-04-17T10:40:33.660Z,17.25
2023-04-17T10:43:23.528Z,18.63
2023-04-17T10:46:04.545Z,20.00
2023-04-17T10:48:40.792Z,19.52
2023-04-17T10:51:26.948Z,19.40
2023-04-17T10:54:01.300Z,20.67
2023-04-17T10:56:49.169Z,19.70
2023-04-17T10:59:19.445Z,19.17
2023-04-17T11:01:49.354Z,18.02
2023-04-17T11:04:26.708Z,20.02
2023-04-17T11:06:54.179Z,19.02
2023-04-17T11:09:27.397Z,18.70
2023-04-17T11:11:55.335Z,19.35
2023-04-17T11:14:23.664Z,19.45
2023-04-17T11:16:52.152Z,18.60
2023-04-17T11:19:25.208Z,19.27
2023-04-17T11:21:55.140Z,18.95
2023-04-17T11:24:30.532Z,18.15
2023-04-17T11:27:01.714Z,19.27
2023-04-17T11:29:29.230Z,17.33
2023-04-17T11:31:57.552Z,19.08
2023-04-17T11:34:26.747Z,18.65
2023-04-17T11:36:58.941Z,19.60
2023-04-17T11:39:30.558Z,19.83
2023-04-17T11:41:57.896Z,19.25
2023-04-17T11:44:25.917Z,20.50
2023-04-17T11:47:00.873Z,19.38
2023-04-17T11:49:30.650Z,17.90
2023-04-17T11:52:01.492Z,18.42
2023-04-17T11:54:31.262Z,19.27
2023-04-17T11:57:14.646Z,17.90
2023-04-17T11:59:42.897Z,18.35
2023-04-17T12:02:10.352Z,18.15
2023-04-17T12:04:40.138Z,17.35
2023-04-17T12:07:08.552Z,16.30
2023-04-17T12:09:36.841Z,17.10
2023-04-17T12:12:08.198Z,14.85
2023-04-17T12:14:35.758Z,16.98
2023-04-17T12:17:02.688Z,15.43
2023-04-17T12:19:31.577Z,15.85
2023-04-17T12:21:59.197Z,15.68
2023-04-17T12:24:26.230Z,16.73
2023-04-17T12:26:53.390Z,14.20
2023-04-17T12:29:29.521Z,14.50
2023-04-17T12:32:07.809Z,14.77
2023-04-17T12:34:34.863Z,16.23
2023-04-17T12:37:01.735Z,15.27
2023-04-17T12:39:28.524Z,14.27
2023-04-17T12:41:55.400Z,14.80
2023-04-17T12:44:22.160Z,14.23
2023-04-17T12:46:49.013Z,16.73
2023-04-17T12:49:16.420Z,16.63
2023-04-17T12:51:43.256Z,15.02
2023-04-17T12:54:10.492Z,14.30
2023-04-17T12:56:37.400Z,14.00
2023-04-17T12:59:04.725Z,14.98
2023-04-17T13:01:31.522Z,15.10
2023-04-17T13:03:58.370Z,14.82
2023-04-17T13:06:25.528Z,14.43
2023-04-17T13:08:52.371Z,14.30
2023-04-17T13:11:19.174Z,14.23
2023-04-17T13:13:46.044Z,14.88
2023-04-17T13:16:12.818Z,15.10
2023-04-17T13:18:39.686Z,13.10
2023-04-17T13:21:06.833Z,15.93
2023-04-17T13:23:33.704Z,14.90
2023-04-17T13:26:00.544Z,16.10
2023-04-17T13:28:27.323Z,14.90
2023-04-17T13:30:56.772Z,15.10
2023-04-17T13:33:23.615Z,15.20
2023-04-17T13:35:52.638Z,15.85
2023-04-17T13:38:19.558Z,15.65
2023-04-17T13:40:46.331Z,15.98
2023-04-17T13:43:13.414Z,14.80
2023-04-17T13:45:40.429Z,15.73
2023-04-17T13:48:07.280Z,15.20
2023-04-17T13:50:34.236Z,15.10
2023-04-17T13:53:01.612Z,15.63
2023-04-17T13:55:28.542Z,15.30
2023-04-17T13:57:55.467Z,14.85
2023-04-17T14:00:22.546Z,15.07
2023-04-17T14:02:49.591Z,14.75
2023-04-17T14:05:16.760Z,14.52
2023-04-17T14:07:44.516Z,13.90
2023-04-17T14:10:11.400Z,14.68
2023-04-17T14:12:38.251Z,15.90
2023-04-17T14:15:07.255Z,15.38
2023-04-17T14:17:37.953Z,14.00
2023-04-17T14:20:06.141Z,14.52
2023-04-17T14:22:32.907Z,13.70
2023-04-17T14:24:59.637Z,14.45
2023-04-17T14:27:26.722Z,13.30
2023-04-17T14:29:53.562Z,14.25
2023-04-17T14:32:20.473Z,13.90
2023-04-17T14:34:47.252Z,13.60
2023-04-17T14:37:14.040Z,15.65
2023-04-17T14:39:40.964Z,15.25
2023-04-17T14:42:07.816Z,14.18
2023-04-17T14:44:34.582Z,13.98
2023-04-17T14:47:02.329Z,14.93
2023-04-17T14:49:30.268Z,15.55
2023-04-17T14:51:57.034Z,14.82
2023-04-17T14:54:23.941Z,15.30
2023-04-17T14:56:50.891Z,15.27
2023-04-17T14:59:17.826Z,16.33
2023-04-17T15:01:44.819Z,15.38
2023-04-17T15:04:12.060Z,15.48
2023-04-17T15:06:39.143Z,15.93
2023-04-17T15:09:06.719Z,17.50
2023-04-17T15:11:33.553Z,16.08
2023-04-17T15:14:00.533Z,15.68
2023-04-17T15:16:27.506Z,15.57
2023-04-17T15:18:54.407Z,15.65
2023-04-17T15:21:21.300Z,16.58
2023-04-17T15:23:48.288Z,16.63
2023-04-17T15:26:15.242Z,14.88
2023-04-17T15:28:42.110Z,14.75
2023-04-17T15:31:08.988Z,14.85
2023-04-17T15:33:37.624Z,15.68
2023-04-17T15:36:04.514Z,15.52
2023-04-17T15:38:31.299Z,15.07
2023-04-17T15:40:58.889Z,14.30
2023-04-17T15:43:26.166Z,14.55
2023-04-17T15:45:52.996Z,14.48
2023-04-17T15:48:19.986Z,15.77
2023-04-17T15:50:46.877Z,13.30
2023-04-17T15:53:13.736Z,14.13
2023-04-17T15:55:41.160Z,12.98
2023-04-17T15:58:08.274Z,13.52
2023-04-17T16:00:35.138Z,13.20
2023-04-17T16:03:02.129Z,11.65
2023-04-17T16:05:30.327Z,12.02
2023-04-17T16:07:57.338Z,11.73
2023-04-17T16:10:24.640Z,11.30
2023-04-17T16:12:51.391Z,12.68
2023-04-17T16:15:18.743Z,11.88
2023-04-17T16:17:46.076Z,11.48
2023-04-17T16:20:13.367Z,11.48
2023-04-17T16:22:40.718Z,10.57
2023-04-17T16:25:08.307Z,11.57
2023-04-17T16:27:35.199Z,11.15
2023-04-17T16:30:02.917Z,10.52
2023-04-17T16:32:31.643Z,10.60
2023-04-17T16:34:58.842Z,12.35
2023-04-17T16:37:25.986Z,11.25
2023-04-17T16:39:53.031Z,11.57
2023-04-17T16:42:19.782Z,11.38
2023-04-17T16:44:47.267Z,11.35
2023-04-17T16:47:14.855Z,11.45
2023-04-17T16:49:42.582Z,10.45
2023-04-17T16:52:09.866Z,10.25
2023-04-17T16:54:36.686Z,11.13
2023-04-17T16:57:04.989Z,11.82
2023-04-17T16:59:32.601Z,12.45
2023-04-17T17:02:02.225Z,12.00
2023-04-17T17:04:30.141Z,12.13
2023-04-17T17:06:57.694Z,12.95
2023-04-17T17:09:26.239Z,11.63
2023-04-17T17:11:53.194Z,11.60
2023-04-17T17:14:20.165Z,13.20
2023-04-17T17:16:46.936Z,12.65
2023-04-17T17:19:14.704Z,12.18
2023-04-17T17:21:41.666Z,12.18
2023-04-17T17:24:08.505Z,11.40
2023-04-17T17:26:36.910Z,12.35
2023-04-17T17:29:04.120Z,11.85
2023-04-17T17:31:33.513Z,11.38
2023-04-17T17:34:12.028Z,12.45
2023-04-17T17:36:47.851Z,12.48
2023-04-17T17:39:14.875Z,12.48
2023-04-17T17:41:41.781Z,12.50
2023-04-17T17:44:08.699Z,11.65
2023-04-17T17:46:35.711Z,12.70
2023-04-17T17:49:02.566Z,12.75
2023-04-17T17:51:29.384Z,12.98
2023-04-17T17:53:56.383Z,12.88
2023-04-17T17:56:23.541Z,12.27
2023-04-17T17:58:53.634Z,13.13
2023-04-17T18:01:21.438Z,12.95
2023-04-17T18:03:49.914Z,13.13
2023-04-17T18:06:17.195Z,12.90
2023-04-17T18:08:44.001Z,12.15
2023-04-17T18:11:10.761Z,13.05
2023-04-17T18:13:37.525Z,12.15
2023-04-17T18:16:04.757Z,13.20
2023-04-17T18:18:31.612Z,13.63
2023-04-17T18:20:58.453Z,14.13
2023-04-17T18:23:25.545Z,13.98
2023-04-17T18:26:03.439Z,13.65
2023-04-17T18:28:30.676Z,13.70
2023-04-17T18:30:57.583Z,12.80
2023-04-17T18:33:24.654Z,14.13
2023-04-17T18:35:51.827Z,13.77
2023-04-17T18:38:18.792Z,13.50
2023-04-17T18:40:45.630Z,13.95
2023-04-17T18:43:12.479Z,14.27
2023-04-17T18:45:39.323Z,14.35
2023-04-17T18:48:06.401Z,14.40
2023-04-17T18:50:33.250Z,15.18
2023-04-17T18:53:00.094Z,14.43
2023-04-17T18:55:26.952Z,15.80
2023-04-17T18:57:53.731Z,15.60
2023-04-17T19:00:20.671Z,14.52
2023-04-17T19:02:47.808Z,15.40
2023-04-17T19:05:15.089Z,15.80
2023-04-17T19:07:42.079Z,16.63
2023-04-17T19:10:09.686Z,16.27
2023-04-17T19:12:36.539Z,16.13
2023-04-17T19:15:04.615Z,15.45
2023-04-17T19:17:31.908Z,15.60
2023-04-17T19:19:58.679Z,15.35
2023-04-17T19:22:25.590Z,16.02
2023-04-17T19:24:52.933Z,16.23
2023-04-17T19:27:20.316Z,15.63
2023-04-17T19:29:47.727Z,15.35
2023-04-17T19:32:16.490Z,15.57
2023-04-17T19:34:44.278Z,15.73
2023-04-17T19:37:11.184Z,15.95
2023-04-17T19:39:38.071Z,14.95
2023-04-17T19:42:05.564Z,14.93
2023-04-17T19:44:32.434Z,14.45
2023-04-17T19:46:59.394Z,16.90
2023-04-17T19:49:26.402Z,16.20
2023-04-17T19:51:53.222Z,15.13
2023-04-17T19:54:19.970Z,16.25
2023-04-17T19:56:46.756Z,17.83
2023-04-17T19:59:14.190Z,16.33
2023-04-17T20:01:43.423Z,16.33
2023-04-17T20:04:11.261Z,17.35
2023-04-17T20:06:39.506Z,17.60
2023-04-17T20:09:06.455Z,17.50
2023-04-17T20:11:33.385Z,17.35
2023-04-17T20:14:00.142Z,16.95
2023-04-17T20:16:26.939Z,17.35
2023-04-17T20:18:56.361Z,17.45
2023-04-17T20:21:23.480Z,17.85
2023-04-17T20:23:50.258Z,17.95
2023-04-17T20:26:17.060Z,16.00
2023-04-17T20:28:43.915Z,16.88
2023-04-17T20:31:10.783Z,17.08
2023-04-17T20:33:37.571Z,17.40
2023-04-17T20:36:05.812Z,17.63
2023-04-17T20:38:32.664Z,18.23
2023-04-17T20:40:59.506Z,17.52
2023-04-17T20:43:26.406Z,17.50
2023-04-17T20:45:53.229Z,17.60
2023-04-17T20:48:20.108Z,16.45
2023-04-17T20:50:47.014Z,16.58
2023-04-17T20:53:13.878Z,15.43
2023-04-17T20:55:40.768Z,16.83
2023-04-17T20:58:07.738Z,16.45
2023-04-17T21:00:34.685Z,16.77
2023-04-17T21:03:01.788Z,15.27
2023-04-17T21:05:29.065Z,15.57
2023-04-17T21:07:57.603Z,15.70
2023-04-17T21:10:24.614Z,15.40
2023-04-17T21:12:51.420Z,16.25
2023-04-17T21:15:18.397Z,14.98
2023-04-17T21:17:47.507Z,16.27
2023-04-17T21:20:14.730Z,15.45
2023-04-17T21:22:41.604Z,15.18
2023-04-17T21:25:08.884Z,14.68
2023-04-17T21:27:35.732Z,14.75
2023-04-17T21:30:03.785Z,13.80
2023-04-17T21:32:30.696Z,14.88
2023-04-17T21:34:57.610Z,14.80
2023-04-17T21:37:24.597Z,14.32
2023-04-17T21:39:51.412Z,14.13
2023-04-17T21:42:18.311Z,13.23
2023-04-17T21:44:45.050Z,13.63
2023-04-17T21:47:12.230Z,13.88
2023-04-17T21:49:39.035Z,14.00
2023-04-17T21:52:05.884Z,13.48
2023-04-17T21:54:33.642Z,13.75
2023-04-17T21:57:02.024Z,13.63
2023-04-17T21:59:28.844Z,13.60
2023-04-17T22:01:55.624Z,13.23
2023-04-17T22:04:22.701Z,13.82
2023-04-17T22:06:51.627Z,14.95
2023-04-17T22:09:19.939Z,13.85
2023-04-17T22:11:49.280Z,14.10
2023-04-17T22:14:16.931Z,13.27
2023-04-17T22:16:44.246Z,14.60
2023-04-17T22:19:11.230Z,14.13
2023-04-17T22:22:16.281Z,14.27
2023-04-17T22:25:20.981Z,13.75
2023-04-17T22:28:44.069Z,15.02
2023-04-17T22:32:09.828Z,13.25
2023-04-17T22:35:32.390Z,15.40
2023-04-17T22:38:18.404Z,15.88
2023-04-17T22:41:42.506Z,16.48
2023-04-17T22:45:24.404Z,15.02
2023-04-17T22:48:28.758Z,15.13
2023-04-17T22:51:51.780Z,16.75
2023-04-17T22:54:56.066Z,16.42
2023-04-17T22:58:19.819Z,16.55
2023-04-17T23:01:23.936Z,17.58
2023-04-17T23:05:05.845Z,17.25
2023-04-17T23:07:32.819Z,16.42
2023-04-17T23:09:59.690Z,17.45
2023-04-17T23:12:26.543Z,16.58
2023-04-17T23:14:53.479Z,16.00
2023-04-17T23:17:20.318Z,16.02
2023-04-17T23:19:47.954Z,17.40
2023-04-17T23:22:14.943Z,17.23
2023-04-17T23:24:41.774Z,17.55
2023-04-17T23:27:08.540Z,17.77
2023-04-17T23:29:35.306Z,17.17
2023-04-17T23:32:04.325Z,17.25
2023-04-17T23:34:31.099Z,16.15
2023-04-17T23:36:57.886Z,15.95
2023-04-17T23:39:25.117Z,15.23
2023-04-17T23:41:51.953Z,16.52
2023-04-17T23:44:19.188Z,16.80
2023-04-17T23:46:46.121Z,15.98
2023-04-17T23:49:12.987Z,16.33
2023-04-17T23:51:39.860Z,17.08
2023-04-17T23:54:07.969Z,16.35
2023-04-17T23:56:34.777Z,15.82
2023-04-17T23:59:01.529Z,14.60
